Time;durP1;ratioP1;P1;durP2;ratioP2;P2;SDS_P1;SDS_P2;PMS_P1;PMS_P2;Temp;Humidity;BMP_temperature;BMP_pressure;BME280_temperature;BME280_humidity;BME280_pressure;Samples;Min_cycle;Max_cycle;Signal;HPM_P1;HPM_P2
2021/05/07 00:01:40;;;;;;;;;;;;;;;3.29;100.00;98395.81;5072645;28;19928;-78
2021/05/07 00:04:06;;;;;;;;;;;;;;;3.29;100.00;98396.59;5073000;28;20363;-78
2021/05/07 00:06:34;;;;;;;;;;;;;;;3.31;100.00;98399.78;5071481;28;19942;-78
2021/05/07 00:09:05;;;;;;;;;;;;;;;3.19;100.00;98407.63;5072718;28;20047;-78
2021/05/07 00:11:33;;;;;;;;;;;;;;;3.32;100.00;98406.06;5072946;28;20006;-79
2021/05/07 00:14:01;;;;;;;;;;;;;;;3.43;100.00;98412.41;5074228;28;19924;-78
2021/05/07 00:16:28;;;;;;;;;;;;;;;3.37;100.00;98413.97;5073887;28;19943;-78
2021/05/07 00:18:55;;;;;;;;;;;;;;;3.28;100.00;98419.09;5075010;28;20380;-78
2021/05/07 00:21:26;;;;;;;;;;;;;;;3.21;100.00;98421.84;5076545;28;19928;-78
2021/05/07 00:23:53;;;;;;;;;;;;;;;3.59;100.00;98426.63;5074928;28;19920;-78
2021/05/07 00:26:20;;;;;;;;;;;;;;;3.76;100.00;98419.56;5076333;28;20006;-78
2021/05/07 00:28:46;;;;;;;;;;;;;;;3.90;100.00;98422.31;5075992;28;19967;-78
2021/05/07 00:31:14;;;;;;;;;;;;;;;4.06;100.00;98429.03;5058330;28;19921;-78
2021/05/07 00:33:41;;;;;;;;;;;;;;;4.07;100.00;98425.09;5074729;28;19927;-78
2021/05/07 00:36:07;;;;;;;;;;;;;;;3.97;100.00;98425.88;5076180;28;20362;-78
2021/05/07 00:38:36;;;;;;;;;;;;;;;3.89;100.00;98427.06;5075813;28;19920;-78
2021/05/07 00:41:03;;;;;;;;;;;;;;;3.92;100.00;98423.50;5074614;28;20379;-78
2021/05/07 00:43:29;;;;;;;;;;;;;;;3.74;100.00;98417.97;5075965;28;19921;-78
2021/05/07 00:45:56;;;;;;;;;;;;;;;3.74;100.00;98428.25;5074202;28;20566;-78
2021/05/07 00:48:22;;;;;;;;;;;;;;;3.68;100.00;98427.81;5075716;28;20330;-79
2021/05/07 00:50:49;;;;;;;;;;;;;;;3.58;100.00;98430.56;5091338;28;20319;-78
2021/05/07 00:53:18;;;;;;;;;;;;;;;3.53;100.00;98439.25;5075571;28;19970;-78
2021/05/07 00:55:46;;;;;;;;;;;;;;;3.43;100.00;98437.25;5075616;28;20397;-78
2021/05/07 00:58:15;;;;;;;;;;;;;;;3.42;100.00;98439.22;5075470;28;20308;-78
2021/05/07 01:00:42;;;;;;;;;;;;;;;3.38;100.00;98434.88;5074347;28;19966;-79
2021/05/07 01:03:10;;;;;;;;;;;;;;;3.29;100.00;98435.25;5074295;28;20364;-78
2021/05/07 01:05:38;;;;;;;;;;;;;;;3.22;100.00;98440.78;5075557;28;19920;-78
2021/05/07 01:08:09;;;;;;;;;;;;;;;3.20;100.00;98445.88;5074160;28;20283;-78
2021/05/07 01:10:41;;;;;;;;;;;;;;;3.17;100.00;98443.09;5106629;28;19920;-78
2021/05/07 01:13:09;;;;;;;;;;;;;;;3.19;100.00;98452.59;5107924;28;19955;-78
2021/05/07 01:15:43;;;;;;;;;;;;;;;3.24;100.00;98451.41;5074050;28;20368;-78
2021/05/07 01:18:10;;;;;;;;;;;;;;;3.39;100.00;98456.56;5075290;28;20306;-78
2021/05/07 01:20:38;;;;;;;;;;;;;;;3.51;100.00;98458.19;5073997;28;19920;-78
2021/05/07 01:23:06;;;;;;;;;;;;;;;3.64;100.00;98451.09;5075072;28;20339;-78
2021/05/07 01:25:39;;;;;;;;;;;;;;;3.64;100.00;98451.09;5107565;28;19920;-78
2021/05/07 01:28:07;;;;;;;;;;;;;;;3.70;100.00;98455.06;5075181;28;19920;-78
2021/05/07 01:30:41;;;;;;;;;;;;;;;3.68;100.00;98463.75;5074742;28;19927;-78
2021/05/07 01:33:11;;;;;;;;;;;;;;;3.70;100.00;98460.59;5073732;28;20429;-78
2021/05/07 01:35:38;;;;;;;;;;;;;;;3.73;100.00;98465.31;5073616;28;19928;-78
2021/05/07 01:38:09;;;;;;;;;;;;;;;3.78;100.00;98462.19;5073561;28;19920;-78
2021/05/07 01:40:37;;;;;;;;;;;;;;;3.81;100.00;98463.38;5074806;28;19959;-78
2021/05/07 01:43:03;;;;;;;;;;;;;;;3.83;100.00;98467.34;5074782;28;20397;-78
2021/05/07 01:45:31;;;;;;;;;;;;;;;3.88;100.00;98466.94;5074663;28;20010;-78
2021/05/07 01:47:58;;;;;;;;;;;;;;;3.93;100.00;98474.03;5106825;28;19931;-78
2021/05/07 01:50:26;;;;;;;;;;;;;;;3.98;100.00;98477.22;5073473;28;19920;-78
2021/05/07 01:52:56;;;;;;;;;;;;;;;4.01;100.00;98479.19;5073233;28;19920;-78
2021/05/07 01:55:26;;;;;;;;;;;;;;;4.08;100.00;98475.63;5074505;28;19927;-78
2021/05/07 01:57:53;;;;;;;;;;;;;;;4.10;100.00;98476.81;5106691;28;19982;-78
2021/05/07 02:00:22;;;;;;;;;;;;;;;4.10;100.00;98473.25;5074347;28;19925;-78
2021/05/07 02:02:49;;;;;;;;;;;;;;;4.10;100.00;98485.13;5074367;28;19932;-78
2021/05/07 02:05:26;;;;;;;;;;;;;;;4.11;100.00;98475.63;5072941;28;20390;-78
2021/05/07 02:07:53;;;;;;;;;;;;;;;4.12;100.00;98485.50;5074292;28;19927;-78
2021/05/07 02:10:23;;;;;;;;;;;;;;;4.15;100.00;98481.94;5072761;28;19924;-78
2021/05/07 02:12:53;;;;;;;;;;;;;;;4.20;100.00;98489.06;5073924;28;19977;-78
2021/05/07 02:15:21;;;;;;;;;;;;;;;4.24;100.00;98496.16;5074074;28;19920;-78
2021/05/07 02:17:51;;;;;;;;;;;;;;;4.25;100.00;98489.47;5074014;28;19924;-78
2021/05/07 02:20:21;;;;;;;;;;;;;;;4.29;100.00;98495.78;5073907;28;19924;-78
2021/05/07 02:22:49;;;;;;;;;;;;;;;4.32;100.00;98494.97;5073993;28;20287;-78
2021/05/07 02:25:17;;;;;;;;;;;;;;;4.42;100.00;98494.22;5073779;28;19927;-79
2021/05/07 02:27:45;;;;;;;;;;;;;;;4.49;100.00;98496.94;5073821;28;19950;-78
2021/05/07 02:30:14;;;;;;;;;;;;;;;4.49;100.00;98502.50;5073907;28;20399;-79
2021/05/07 02:32:41;;;;;;;;;;;;;;;4.53;100.00;98497.72;5089271;28;19921;-78
2021/05/07 02:35:09;;;;;;;;;;;;;;;4.51;100.00;98500.13;5072385;28;19928;-78
2021/05/07 02:37:36;;;;;;;;;;;;;;;4.55;100.00;98517.50;5073525;28;20356;-78
2021/05/07 02:40:04;;;;;;;;;;;;;;;4.59;100.00;98512.75;5073140;28;19921;-79
2021/05/07 02:42:31;;;;;;;;;;;;;;;4.61;100.00;98515.09;5073502;28;19955;-78
2021/05/07 02:44:57;;;;;;;;;;;;;;;4.61;100.00;98526.19;5072491;28;19959;-78
2021/05/07 02:47:25;;;;;;;;;;;;;;;4.57;100.00;98526.19;5072343;28;20419;-78
2021/05/07 02:49:51;;;;;;;;;;;;;;;4.52;100.00;98529.34;5072199;28;19920;-78
2021/05/07 02:52:18;;;;;;;;;;;;;;;4.47;100.00;98520.69;5072483;28;19931;-78
2021/05/07 02:54:45;;;;;;;;;;;;;;;4.47;100.00;98532.50;5073014;28;19926;-78
2021/05/07 02:57:12;;;;;;;;;;;;;;;4.44;100.00;98527.00;5072352;28;20048;-78
2021/05/07 02:59:39;;;;;;;;;;;;;;;4.44;100.00;98532.53;5055955;28;20427;-79
2021/05/07 03:02:05;;;;;;;;;;;;;;;4.42;100.00;98523.84;5058330;28;19927;-78
2021/05/07 03:04:32;;;;;;;;;;;;;;;4.38;100.00;98534.88;5073401;28;19921;-78
2021/05/07 03:06:59;;;;;;;;;;;;;;;4.44;100.00;98533.31;5073200;28;19928;-78
2021/05/07 03:09:26;;;;;;;;;;;;;;;4.45;100.00;98529.38;5073382;28;19939;-78
2021/05/07 03:11:54;;;;;;;;;;;;;;;4.45;100.00;98529.38;5105570;28;19920;-78
2021/05/07 03:14:20;;;;;;;;;;;;;;;4.49;100.00;98526.59;5073300;28;20005;-78
2021/05/07 03:16:47;;;;;;;;;;;;;;;4.52;100.00;98534.91;5073165;28;19920;-78
2021/05/07 03:19:14;;;;;;;;;;;;;;;4.45;100.00;98540.44;5073080;28;19954;-78
2021/05/07 03:21:40;;;;;;;;;;;;;;;4.45;100.00;98536.88;5072158;28;20457;-78
2021/05/07 03:24:08;;;;;;;;;;;;;;;4.41;100.00;98545.16;5073127;28;19950;-78
2021/05/07 03:26:34;;;;;;;;;;;;;;;4.35;100.00;98543.97;5073289;28;19970;-78
2021/05/07 03:29:01;;;;;;;;;;;;;;;4.43;100.00;98537.28;5072905;28;19920;-78
2021/05/07 03:31:27;;;;;;;;;;;;;;;4.45;100.00;98551.50;5073299;28;19920;-78
2021/05/07 03:33:54;;;;;;;;;;;;;;;4.50;100.00;98548.31;5072877;28;20287;-78
2021/05/07 03:36:21;;;;;;;;;;;;;;;4.53;100.00;98549.53;5071924;28;19924;-78
2021/05/07 03:38:47;;;;;;;;;;;;;;;4.56;100.00;98555.03;5071663;28;20015;-78
2021/05/07 03:41:14;;;;;;;;;;;;;;;4.59;100.00;98568.09;5073084;28;19955;-78
2021/05/07 03:43:40;;;;;;;;;;;;;;;4.67;100.00;98564.13;5071794;28;19955;-78
2021/05/07 03:46:07;;;;;;;;;;;;;;;4.68;100.00;98565.69;5099985;28;19924;-78
2021/05/07 03:48:33;;;;;;;;;;;;;;;4.62;100.00;98561.75;5092250;28;19920;-78
2021/05/07 03:51:00;;;;;;;;;;;;;;;4.68;100.00;98559.41;5093852;28;19920;-78
2021/05/07 03:53:27;;;;;;;;;;;;;;;4.75;100.00;98560.19;5097079;28;19919;-77
2021/05/07 03:55:55;;;;;;;;;;;;;;;4.73;100.00;98568.09;5096035;28;19959;-78
2021/05/07 03:58:22;;;;;;;;;;;;;;;4.76;100.00;98575.59;5097024;28;19927;-78
2021/05/07 04:00:48;;;;;;;;;;;;;;;4.74;100.00;98575.19;5097291;28;19923;-78
2021/05/07 04:03:15;;;;;;;;;;;;;;;4.76;100.00;98575.59;5095381;28;19927;-78
2021/05/07 04:05:45;;;;;;;;;;;;;;;4.72;100.00;98580.34;5097098;28;19926;-78
2021/05/07 04:08:21;;;;;;;;;;;;;;;4.75;100.00;98587.84;5129639;27;19927;-78
2021/05/07 04:10:56;;;;;;;;;;;;;;;4.70;100.00;98590.22;5097068;28;19927;-78
2021/05/07 04:13:55;;;;;;;;;;;;;;;4.67;100.00;98597.34;5096673;28;19920;-78
2021/05/07 04:16:15;;;;;;;;;;;;;;;4.64;100.00;98598.13;5094803;28;20015;-78
2021/05/07 04:18:42;;;;;;;;;;;;;;;4.66;100.00;98600.50;5095467;28;20026;-78
2021/05/07 04:21:09;;;;;;;;;;;;;;;4.60;100.00;98613.94;5096722;28;19924;-78
2021/05/07 04:23:37;;;;;;;;;;;;;;;4.60;100.00;98611.19;5096475;28;19926;-78
2021/05/07 04:26:04;;;;;;;;;;;;;;;4.62;100.00;98617.09;5096676;28;19919;-78
2021/05/07 04:28:31;;;;;;;;;;;;;;;4.57;100.00;98613.94;5096477;28;19920;-78
2021/05/07 04:30:57;;;;;;;;;;;;;;;4.55;100.00;98621.84;5095079;28;19927;-78
2021/05/07 04:33:24;;;;;;;;;;;;;;;4.57;100.00;98614.75;5096523;28;19920;-78
2021/05/07 04:35:51;;;;;;;;;;;;;;;4.53;100.00;98619.47;5096308;28;19927;-78
2021/05/07 04:38:17;;;;;;;;;;;;;;;4.53;100.00;98619.47;5096458;28;19927;-78
2021/05/07 04:40:44;;;;;;;;;;;;;;;4.54;100.00;98621.06;5129035;27;19924;-78
2021/05/07 04:43:11;;;;;;;;;;;;;;;4.57;100.00;98631.34;5112033;28;20371;-78
2021/05/07 04:45:37;;;;;;;;;;;;;;;4.66;100.00;98634.50;5095911;28;19927;-78
2021/05/07 04:48:10;;;;;;;;;;;;;;;4.65;100.00;98634.91;5068012;28;20351;-77
2021/05/07 04:50:37;;;;;;;;;;;;;;;4.61;100.00;98632.13;5096172;28;19943;-78
2021/05/07 04:53:03;;;;;;;;;;;;;;;4.60;100.00;98636.09;5094609;28;19948;-78
2021/05/07 04:55:30;;;;;;;;;;;;;;;4.61;100.00;98647.94;5095958;28;20341;-78
2021/05/07 04:57:57;;;;;;;;;;;;;;;4.62;100.00;98644.78;5095984;28;19926;-78
2021/05/07 05:00:23;;;;;;;;;;;;;;;4.52;100.00;98647.53;5095715;28;20000;-77
2021/05/07 05:02:50;;;;;;;;;;;;;;;4.47;100.00;98651.47;5094142;28;19950;-77
2021/05/07 05:05:17;;;;;;;;;;;;;;;4.44;100.00;98655.03;5078025;28;19924;-77
2021/05/07 05:07:51;;;;;;;;;;;;;;;4.44;100.00;98649.50;5094735;28;20305;-77
2021/05/07 05:10:19;;;;;;;;;;;;;;;4.35;100.00;98654.63;5067743;28;19977;-77
2021/05/07 05:12:46;;;;;;;;;;;;;;;4.26;100.00;98653.41;5077974;28;20332;-77
2021/05/07 05:15:12;;;;;;;;;;;;;;;4.22;100.00;98645.09;5095523;28;20015;-77
2021/05/07 05:17:53;;;;;;;;;;;;;;;4.23;100.00;98646.69;5095680;28;19958;-77
2021/05/07 05:20:20;;;;;;;;;;;;;;;4.27;100.00;98652.22;5095272;28;19927;-78
2021/05/07 05:22:47;;;;;;;;;;;;;;;4.26;100.00;98647.88;5095676;28;19927;-77
2021/05/07 05:25:14;;;;;;;;;;;;;;;4.27;100.00;98650.25;5095579;28;20291;-79
2021/05/07 05:27:40;;;;;;;;;;;;;;;4.32;100.00;98647.09;5094298;28;19927;-80
2021/05/07 05:30:07;;;;;;;;;;;;;;;4.30;100.00;98655.00;5093970;28;19962;-78
2021/05/07 05:32:36;;;;;;;;;;;;;;;4.31;100.00;98662.13;5094243;28;19927;-77
2021/05/07 05:35:04;;;;;;;;;;;;;;;4.26;100.00;98664.47;5095156;28;19989;-77
2021/05/07 05:37:31;;;;;;;;;;;;;;;4.26;100.00;98665.25;5067139;28;19924;-77
2021/05/07 05:39:57;;;;;;;;;;;;;;;4.35;100.00;98662.91;5095200;28;19920;-77
2021/05/07 05:42:29;;;;;;;;;;;;;;;4.37;100.00;98666.09;5094903;28;19924;-77
2021/05/07 05:44:56;;;;;;;;;;;;;;;4.47;100.00;98675.59;5093884;28;19920;-78
2021/05/07 05:47:24;;;;;;;;;;;;;;;4.54;100.00;98676.41;5094797;28;19920;-76
2021/05/07 05:49:53;;;;;;;;;;;;;;;4.64;100.00;98680.34;5094750;28;19969;-77
2021/05/07 05:52:20;;;;;;;;;;;;;;;4.63;100.00;98684.31;5094814;28;19926;-77
2021/05/07 05:54:47;;;;;;;;;;;;;;;4.62;100.00;98683.50;5094865;28;19920;-77
2021/05/07 05:57:13;;;;;;;;;;;;;;;4.65;100.00;98688.25;5090873;28;19928;-78
2021/05/07 05:59:40;;;;;;;;;;;;;;;4.70;100.00;98690.66;5070395;28;19951;-78
2021/05/07 06:02:07;;;;;;;;;;;;;;;4.80;100.00;98695.38;5070663;28;19920;-78
2021/05/07 06:04:34;;;;;;;;;;;;;;;4.93;100.00;98696.59;5070367;28;19985;-78
2021/05/07 06:07:02;;;;;;;;;;;;;;;4.94;100.00;98706.47;5086227;28;19931;-78
2021/05/07 06:09:28;;;;;;;;;;;;;;;5.05;100.00;98707.28;5089341;28;19920;-78
2021/05/07 06:11:55;;;;;;;;;;;;;;;5.11;100.00;98711.25;5084276;28;19926;-78
2021/05/07 06:14:22;;;;;;;;;;;;;;;5.15;100.00;98720.31;5069043;28;19960;-79
2021/05/07 06:17:04;;;;;;;;;;;;;;;5.13;100.00;98714.41;5070000;28;19928;-78
2021/05/07 06:19:31;;;;;;;;;;;;;;;5.14;100.00;98718.75;5070187;28;19925;-78
2021/05/07 06:21:58;;;;;;;;;;;;;;;5.30;100.00;98724.66;5070169;28;19952;-78
2021/05/07 06:24:29;;;;;;;;;;;;;;;5.57;100.00;98727.81;5068535;28;19986;-78
2021/05/07 06:26:56;;;;;;;;;;;;;;;5.96;100.00;98727.75;5069704;28;19920;-78
2021/05/07 06:29:23;;;;;;;;;;;;;;;6.21;100.00;98734.78;5070275;28;19924;-78
2021/05/07 06:31:50;;;;;;;;;;;;;;;6.26;100.00;98730.81;5069654;28;20332;-78
2021/05/07 06:34:16;;;;;;;;;;;;;;;5.87;100.00;98724.63;5070050;28;19973;-78
2021/05/07 06:36:43;;;;;;;;;;;;;;;5.92;100.00;98729.75;5070085;28;19920;-78
2021/05/07 06:39:09;;;;;;;;;;;;;;;5.83;100.00;98729.38;5069249;28;20560;-78
2021/05/07 06:41:36;;;;;;;;;;;;;;;5.73;100.00;98730.94;5070068;28;19935;-78
2021/05/07 06:44:04;;;;;;;;;;;;;;;5.79;100.00;98729.34;5069153;28;19920;-78
2021/05/07 06:46:31;;;;;;;;;;;;;;;6.03;100.00;98728.53;5070261;28;19921;-78
2021/05/07 06:48:57;;;;;;;;;;;;;;;6.03;100.00;98739.63;5070474;28;19921;-78
2021/05/07 06:51:24;;;;;;;;;;;;;;;6.20;100.00;98735.19;5073570;28;19983;-74
2021/05/07 06:53:50;;;;;;;;;;;;;;;6.25;100.00;98737.56;5074237;28;20344;-75
2021/05/07 06:56:20;;;;;;;;;;;;;;;6.26;100.00;98742.72;5106986;27;19934;-76
2021/05/07 06:58:47;;;;;;;;;;;;;;;6.39;100.00;98740.28;5072412;28;19920;-76
2021/05/07 07:01:14;;;;;;;;;;;;;;;6.29;100.00;98750.22;5079630;28;19933;-75
2021/05/07 07:03:42;;;;;;;;;;;;;;;6.29;100.00;98749.44;5079981;28;20369;-75
2021/05/07 07:06:10;;;;;;;;;;;;;;;6.32;100.00;98751.41;5079782;28;19924;-75
2021/05/07 07:08:37;;;;;;;;;;;;;;;6.44;100.00;98742.63;5082430;28;20367;-76
2021/05/07 07:11:03;;;;;;;;;;;;;;;6.78;100.00;98738.09;5084769;28;19920;-75
2021/05/07 07:13:30;;;;;;;;;;;;;;;7.08;100.00;98743.84;5107347;27;19931;-75
2021/05/07 07:15:58;;;;;;;;;;;;;;;7.17;100.00;98752.50;5082681;28;19920;-75
2021/05/07 07:18:24;;;;;;;;;;;;;;;7.18;100.00;98748.50;5069897;28;19928;-75
2021/05/07 07:20:51;;;;;;;;;;;;;;;7.08;100.00;98754.94;5070641;28;19954;-75
2021/05/07 07:23:18;;;;;;;;;;;;;;;6.95;100.00;98757.41;5068917;28;19924;-75
2021/05/07 07:25:45;;;;;;;;;;;;;;;6.79;100.00;98756.31;5104835;27;19924;-76
2021/05/07 07:28:12;;;;;;;;;;;;;;;6.71;100.00;98757.56;5088618;28;19928;-75
2021/05/07 07:30:39;;;;;;;;;;;;;;;6.73;100.00;98755.97;5088300;28;19978;-75
2021/05/07 07:33:06;;;;;;;;;;;;;;;7.92;100.00;98745.84;5090664;28;19927;-74
2021/05/07 07:35:33;;;;;;;;;;;;;;;8.59;100.00;98762.59;5089766;28;20073;-74
2021/05/07 07:37:59;;;;;;;;;;;;;;;8.58;100.00;98761.03;5088561;28;19924;-77
2021/05/07 07:40:26;;;;;;;;;;;;;;;7.95;100.00;98764.50;5087959;28;20784;-75
2021/05/07 07:42:52;;;;;;;;;;;;;;;7.76;100.00;98762.31;5077215;28;20260;-75
2021/05/07 07:45:20;;;;;;;;;;;;;;;7.58;100.00;98750.56;5085818;28;19935;-75
2021/05/07 07:47:46;;;;;;;;;;;;;;;7.18;100.00;98754.88;5122202;27;20299;-75
2021/05/07 07:50:13;;;;;;;;;;;;;;;7.05;100.00;98755.75;5073537;28;19947;-75
2021/05/07 07:52:40;;;;;;;;;;;;;;;7.36;100.00;98761.06;5076767;28;19928;-76
2021/05/07 07:55:07;;;;;;;;;;;;;;;7.90;100.00;98748.28;5087949;28;20550;-76
2021/05/07 07:57:34;;;;;;;;;;;;;;;8.28;100.00;98749.88;5075179;28;19920;-76
2021/05/07 08:00:00;;;;;;;;;;;;;;;8.03;100.00;98766.00;5075486;28;19946;-77
2021/05/07 08:02:28;;;;;;;;;;;;;;;7.90;100.00;98767.75;5089859;28;20416;-78
2021/05/07 08:04:55;;;;;;;;;;;;;;;7.91;100.00;98769.31;5074927;28;20413;-77
2021/05/07 08:07:21;;;;;;;;;;;;;;;8.30;100.00;98766.94;5074459;28;19973;-76
2021/05/07 08:09:49;;;;;;;;;;;;;;;8.49;100.00;98763.53;5082609;28;19930;-75
2021/05/07 08:12:16;;;;;;;;;;;;;;;8.86;100.00;98769.00;5075022;28;19920;-77
2021/05/07 08:14:42;;;;;;;;;;;;;;;9.04;100.00;98779.91;5080835;28;20032;-76
2021/05/07 08:17:09;;;;;;;;;;;;;;;9.09;100.00;98780.22;5090457;28;20009;-76
2021/05/07 08:19:36;;;;;;;;;;;;;;;9.34;100.00;98788.22;5091869;28;20286;-77
2021/05/07 08:22:03;;;;;;;;;;;;;;;10.35;100.00;98790.44;5086971;28;19920;-76
2021/05/07 08:24:30;;;;;;;;;;;;;;;10.13;100.00;98787.25;5091182;28;19920;-76
2021/05/07 08:26:57;;;;;;;;;;;;;;;9.25;100.00;98779.59;5084435;28;19959;-75
2021/05/07 08:29:25;;;;;;;;;;;;;;;8.62;100.00;98786.03;5086167;28;19924;-76
2021/05/07 08:31:52;;;;;;;;;;;;;;;8.94;100.00;98776.06;5087419;28;19920;-76
2021/05/07 08:34:20;;;;;;;;;;;;;;;9.12;100.00;98778.56;5090787;28;19931;-75
2021/05/07 08:36:48;;;;;;;;;;;;;;;8.66;100.00;98776.41;5038676;28;20474;-78
2021/05/07 08:39:14;;;;;;;;;;;;;;;9.12;100.00;98782.16;5081238;28;20352;-76
2021/05/07 08:41:44;;;;;;;;;;;;;;;9.44;100.00;98769.72;5086077;28;20355;-76
2021/05/07 08:44:11;;;;;;;;;;;;;;;8.69;100.00;98785.94;5078116;28;20006;-75
2021/05/07 08:46:41;;;;;;;;;;;;;;;8.62;100.00;98780.44;5086498;28;20299;-76
2021/05/07 08:49:09;;;;;;;;;;;;;;;8.82;100.00;98773.84;5072734;28;20360;-76
2021/05/07 08:51:36;;;;;;;;;;;;;;;9.27;100.00;98781.94;5064947;28;19975;-76
2021/05/07 08:54:03;;;;;;;;;;;;;;;9.72;100.00;98792.38;5073525;28;19962;-76
2021/05/07 08:56:34;;;;;;;;;;;;;;;10.21;100.00;98787.91;5087941;28;20361;-77
2021/05/07 08:59:00;;;;;;;;;;;;;;;9.98;100.00;98785.16;5089424;28;19924;-76
2021/05/07 09:01:40;;;;;;;;;;;;;;;8.96;100.00;98795.13;5085653;28;19920;-76
2021/05/07 09:04:11;;;;;;;;;;;;;;;8.59;100.00;98796.00;5084783;28;19920;-76
2021/05/07 09:06:39;;;;;;;;;;;;;;;8.45;100.00;98793.38;5089301;28;20017;-77
2021/05/07 09:09:15;;;;;;;;;;;;;;;8.19;100.00;98796.88;5079254;28;19920;-75
2021/05/07 09:11:43;;;;;;;;;;;;;;;8.07;100.00;98794.59;5100550;27;19927;-75
2021/05/07 09:14:09;;;;;;;;;;;;;;;8.01;100.00;98795.47;5104346;28;20011;-76
2021/05/07 09:16:36;;;;;;;;;;;;;;;8.24;100.00;98799.19;5086779;28;19920;-76
2021/05/07 09:19:03;;;;;;;;;;;;;;;9.09;100.00;98794.16;5122995;27;19924;-75
2021/05/07 09:21:29;;;;;;;;;;;;;;;9.69;100.00;98792.41;5076520;28;19931;-76
2021/05/07 09:23:56;;;;;;;;;;;;;;;10.55;100.00;98808.00;5071161;28;20380;-76
2021/05/07 09:26:23;;;;;;;;;;;;;;;10.89;100.00;98802.88;5071136;28;19956;-77
2021/05/07 09:28:50;;;;;;;;;;;;;;;10.25;100.00;98803.38;5070594;28;20037;-76
2021/05/07 09:31:17;;;;;;;;;;;;;;;10.13;100.00;98794.88;5073147;28;19970;-76
2021/05/07 09:33:45;;;;;;;;;;;;;;;9.76;100.00;98809.03;5089497;28;20550;-76
2021/05/07 09:36:25;;;;;;;;;;;;;;;9.68;100.00;98802.00;5082968;28;19927;-77
2021/05/07 09:38:52;;;;;;;;;;;;;;;9.39;100.00;98798.88;5085162;28;19931;-77
2021/05/07 09:41:44;;;;;;;;;;;;;;;9.32;100.00;98807.34;5088297;28;19928;-77
2021/05/07 09:44:14;;;;;;;;;;;;;;;9.12;100.00;98798.09;5111486;27;19921;-76
2021/05/07 09:46:41;;;;;;;;;;;;;;;9.28;100.00;98800.25;5087477;28;20394;-77
2021/05/07 09:49:07;;;;;;;;;;;;;;;9.13;100.00;98799.69;5084996;28;20150;-77
2021/05/07 09:51:42;;;;;;;;;;;;;;;9.14;100.00;98807.63;5112419;27;19920;-77
2021/05/07 09:54:09;;;;;;;;;;;;;;;9.04;100.00;98807.78;5083161;28;19949;-77
2021/05/07 09:56:36;;;;;;;;;;;;;;;9.39;100.00;98795.31;5084236;28;20364;-76
2021/05/07 09:59:04;;;;;;;;;;;;;;;9.74;100.00;98808.69;5070534;28;19921;-76
2021/05/07 10:01:31;;;;;;;;;;;;;;;9.85;100.00;98803.69;5070213;28;20082;-77
2021/05/07 10:03:58;;;;;;;;;;;;;;;10.00;100.00;98802.22;5070613;28;20015;-77
2021/05/07 10:06:25;;;;;;;;;;;;;;;10.23;100.00;98799.44;5069973;28;19927;-77
2021/05/07 10:08:52;;;;;;;;;;;;;;;10.46;100.00;98803.00;5069915;28;19924;-77
2021/05/07 10:11:20;;;;;;;;;;;;;;;10.36;100.00;98797.63;5070672;28;19970;-77
2021/05/07 10:13:47;;;;;;;;;;;;;;;9.70;100.00;98788.41;5070012;28;20045;-76
2021/05/07 10:16:14;;;;;;;;;;;;;;;9.49;100.00;98795.13;5102234;28;19920;-76
2021/05/07 10:18:41;;;;;;;;;;;;;;;9.28;100.00;98794.66;5102921;28;19926;-77
2021/05/07 10:21:09;;;;;;;;;;;;;;;9.33;100.00;98799.78;5069942;28;19920;-76
2021/05/07 10:23:36;;;;;;;;;;;;;;;9.61;100.00;98785.38;5070169;28;19927;-77
2021/05/07 10:26:06;;;;;;;;;;;;;;;9.74;100.00;98795.50;5070152;28;20383;-76
2021/05/07 10:28:46;;;;;;;;;;;;;;;10.22;100.00;98800.69;5068416;28;19928;-77
2021/05/07 10:31:15;;;;;;;;;;;;;;;11.03;100.00;98799.81;5069776;28;19928;-77
2021/05/07 10:33:57;;;;;;;;;;;;;;;11.57;100.00;98806.53;5069591;28;19959;-77
2021/05/07 10:36:44;;;;;;;;;;;;;;;11.41;100.00;98792.53;5069315;28;19920;-77
2021/05/07 10:39:18;;;;;;;;;;;;;;;10.78;100.00;98799.56;5069786;28;20411;-76
2021/05/07 10:41:45;;;;;;;;;;;;;;;10.37;100.00;98815.94;5062649;28;20360;-77
2021/05/07 10:44:13;;;;;;;;;;;;;;;9.93;100.00;98819.13;5069600;28;20339;-76
2021/05/07 10:46:43;;;;;;;;;;;;;;;9.71;100.00;98820.69;5069651;28;19927;-77
2021/05/07 10:49:11;;;;;;;;;;;;;;;9.29;100.00;98832.47;5069363;28;19920;-77
2021/05/07 10:51:38;;;;;;;;;;;;;;;9.07;100.00;98813.28;5068238;28;19959;-76
2021/05/07 10:54:04;;;;;;;;;;;;;;;9.00;100.00;98823.72;5081823;28;19920;-76
2021/05/07 10:56:36;;;;;;;;;;;;;;;9.06;100.00;98825.63;5071949;28;20010;-76
2021/05/07 10:59:19;;;;;;;;;;;;;;;9.69;100.00;98825.91;5071757;28;19930;-76
2021/05/07 11:01:56;;;;;;;;;;;;;;;9.91;100.00;98827.13;5067283;28;20516;-76
2021/05/07 11:04:23;;;;;;;;;;;;;;;10.02;100.00;98833.31;5069785;28;20363;-81
2021/05/07 11:07:03;;;;;;;;;;;;;;;10.27;100.00;98831.69;5067978;28;19978;-80
2021/05/07 11:09:30;;;;;;;;;;;;;;;10.32;100.00;98833.19;5069573;28;19929;-79
2021/05/07 11:12:02;;;;;;;;;;;;;;;9.92;100.00;98845.44;5069807;28;19921;-79
2021/05/07 11:14:32;;;;;;;;;;;;;;;9.57;100.00;98852.41;5068260;28;20058;-79
2021/05/07 11:16:59;;;;;;;;;;;;;;;8.96;100.00;98856.44;5067697;28;20486;-79
2021/05/07 11:19:30;;;;;;;;;;;;;;;8.70;100.00;98865.50;5070013;28;20014;-77
2021/05/07 11:21:57;;;;;;;;;;;;;;;8.88;100.00;98855.75;5079347;28;19920;-78
2021/05/07 11:24:25;;;;;;;;;;;;;;;9.10;100.00;98867.41;5081346;28;19927;-79
2021/05/07 11:26:52;;;;;;;;;;;;;;;8.98;100.00;98874.31;5082937;28;19927;-80
2021/05/07 11:29:26;;;;;;;;;;;;;;;8.82;100.00;98870.53;5071245;28;20011;-80
2021/05/07 11:31:52;;;;;;;;;;;;;;;8.70;100.00;98871.88;5070698;28;20015;-79
2021/05/07 11:34:28;;;;;;;;;;;;;;;8.60;100.00;98869.22;5068312;28;20417;-77
2021/05/07 11:36:58;;;;;;;;;;;;;;;8.82;100.00;98868.56;5067532;28;20001;-77
2021/05/07 11:39:26;;;;;;;;;;;;;;;9.00;100.00;98860.75;5101990;28;19920;-78
2021/05/07 11:41:52;;;;;;;;;;;;;;;9.37;100.00;98864.63;5069115;28;19924;-78
2021/05/07 11:44:19;;;;;;;;;;;;;;;9.83;100.00;98862.72;5056879;28;19924;-78
2021/05/07 11:47:06;;;;;;;;;;;;;;;10.22;100.00;98868.47;5069568;28;20392;-78
2021/05/07 11:49:34;;;;;;;;;;;;;;;10.43;100.00;98858.91;5057613;28;19942;-78
2021/05/07 11:52:01;;;;;;;;;;;;;;;10.44;100.00;98854.91;5069467;28;19927;-78
2021/05/07 11:54:37;;;;;;;;;;;;;;;10.04;100.00;98869.97;5084484;28;19933;-78
2021/05/07 11:57:04;;;;;;;;;;;;;;;10.00;100.00;98869.22;5089197;28;19927;-78
2021/05/07 11:59:31;;;;;;;;;;;;;;;9.81;100.00;98862.38;5087991;28;19924;-78
2021/05/07 12:02:05;;;;;;;;;;;;;;;9.69;100.00;98862.16;5089621;28;19920;-79
2021/05/07 12:04:52;;;;;;;;;;;;;;;9.98;100.00;98861.28;5082528;28;19919;-80
2021/05/07 12:07:39;;;;;;;;;;;;;;;10.35;100.00;98857.47;5084818;28;19927;-80
2021/05/07 12:10:06;;;;;;;;;;;;;;;10.63;100.00;98859.75;5084686;28;20317;-81
2021/05/07 12:12:43;;;;;;;;;;;;;;;10.72;100.00;98866.31;5087898;28;19927;-80
2021/05/07 12:15:11;;;;;;;;;;;;;;;10.91;100.00;98851.56;5075054;28;19928;-81
2021/05/07 12:17:45;;;;;;;;;;;;;;;10.59;100.00;98861.78;5072139;28;19924;-79
2021/05/07 12:20:19;;;;;;;;;;;;;;;10.55;100.00;98853.50;5071925;28;20395;-79
2021/05/07 12:22:51;;;;;;;;;;;;;;;10.22;100.00;98864.91;5118689;27;20343;-77
2021/05/07 12:25:19;;;;;;;;;;;;;;;10.29;100.00;98859.97;5085632;28;20408;-77
2021/05/07 12:27:48;;;;;;;;;;;;;;;10.51;100.00;98854.78;5083962;28;20014;-78
2021/05/07 12:30:15;;;;;;;;;;;;;;;11.07;100.00;98856.44;5087918;28;19920;-77
2021/05/07 12:32:42;;;;;;;;;;;;;;;11.57;100.00;98854.09;5089740;28;20341;-77
2021/05/07 12:35:08;;;;;;;;;;;;;;;11.98;100.00;98857.13;5089302;28;19931;-77
2021/05/07 12:37:39;;;;;;;;;;;;;;;11.89;100.00;98845.75;5087189;28;20315;-77
2021/05/07 12:40:06;;;;;;;;;;;;;;;11.99;100.00;98850.31;5089687;28;19927;-78
2021/05/07 12:42:32;;;;;;;;;;;;;;;11.41;100.00;98851.28;5089354;28;19921;-78
2021/05/07 12:44:59;;;;;;;;;;;;;;;11.41;100.00;98847.69;5090232;28;20015;-77
2021/05/07 12:47:25;;;;;;;;;;;;;;;11.20;100.00;98854.56;5089203;28;19993;-77
2021/05/07 12:49:52;;;;;;;;;;;;;;;11.21;100.00;98858.91;5088840;28;19946;-77
2021/05/07 12:52:19;;;;;;;;;;;;;;;11.52;100.00;98846.25;5088377;28;19927;-78